createdAt,value
2022-10-10T00:01:24.806Z,26.50
2022-10-10T00:03:53.976Z,26.20
2022-10-10T00:06:23.690Z,26.10
2022-10-10T00:08:53.063Z,26.20
2022-10-10T00:11:23.309Z,26.40
2022-10-10T00:13:52.772Z,26.90
2022-10-10T00:16:21.666Z,26.60
2022-10-10T00:18:50.343Z,26.90
2022-10-10T00:21:18.852Z,26.80
2022-10-10T00:23:48.081Z,27.10
2022-10-10T00:26:18.851Z,27.00
2022-10-10T00:28:47.489Z,27.00
2022-10-10T00:31:15.790Z,27.10
2022-10-10T00:33:43.754Z,27.30
2022-10-10T00:36:12.364Z,27.60
2022-10-10T00:38:40.321Z,27.60
2022-10-10T00:41:09.941Z,27.60
2022-10-10T00:43:38.488Z,27.50
2022-10-10T00:46:06.850Z,27.60
2022-10-10T00:48:37.055Z,28.00
2022-10-10T00:51:10.325Z,27.90
2022-10-10T00:53:42.922Z,27.70
2022-10-10T00:56:15.272Z,27.90
2022-10-10T00:58:49.637Z,28.00
2022-10-10T01:01:18.046Z,27.90
2022-10-10T01:03:46.137Z,27.90
2022-10-10T01:06:14.333Z,28.00
2022-10-10T01:08:43.170Z,28.50
2022-10-10T01:11:33.314Z,28.20
2022-10-10T01:14:14.865Z,28.30
2022-10-10T01:16:51.328Z,28.30
2022-10-10T01:20:07.292Z,28.10
2022-10-10T01:22:51.566Z,28.60
2022-10-10T01:25:28.821Z,29.00
2022-10-10T01:28:04.467Z,28.90
2022-10-10T01:30:36.268Z,28.80
2022-10-10T01:33:09.802Z,29.10
2022-10-10T01:35:49.516Z,29.50
2022-10-10T01:38:30.493Z,29.60
2022-10-10T01:41:07.889Z,29.30
2022-10-10T01:43:37.562Z,29.50
2022-10-10T01:46:14.071Z,29.80
2022-10-10T01:48:43.695Z,29.60
2022-10-10T01:51:29.752Z,29.80
2022-10-10T01:54:08.346Z,29.80
2022-10-10T01:56:43.747Z,29.90
2022-10-10T01:59:29.901Z,30.10
2022-10-10T02:02:08.578Z,30.20
2022-10-10T02:04:42.885Z,30.10
2022-10-10T02:07:16.053Z,30.10
2022-10-10T02:09:46.708Z,30.40
2022-10-10T02:12:17.094Z,30.50
2022-10-10T02:14:48.633Z,30.40
2022-10-10T02:17:18.917Z,30.80
2022-10-10T02:19:52.121Z,30.80
2022-10-10T02:22:22.003Z,31.00
2022-10-10T02:24:50.569Z,31.30
2022-10-10T02:27:25.833Z,31.10
2022-10-10T02:29:55.213Z,31.40
2022-10-10T02:32:31.018Z,31.30
2022-10-10T02:35:06.034Z,31.60
2022-10-10T02:37:34.446Z,31.90
2022-10-10T02:40:06.483Z,31.60
2022-10-10T02:42:35.865Z,31.60
2022-10-10T02:45:06.124Z,31.40
2022-10-10T02:47:35.499Z,31.60
2022-10-10T02:50:03.681Z,31.80
2022-10-10T02:52:31.695Z,32.10
2022-10-10T02:54:59.773Z,32.00
2022-10-10T02:57:27.680Z,32.00
2022-10-10T02:59:55.611Z,32.00
2022-10-10T03:02:23.838Z,32.10
2022-10-10T03:04:53.431Z,31.80
2022-10-10T03:07:21.351Z,31.70
2022-10-10T03:09:49.248Z,32.00
2022-10-10T03:12:17.198Z,32.40
2022-10-10T03:14:45.273Z,32.20
2022-10-10T03:17:13.313Z,32.30
2022-10-10T03:19:41.309Z,32.20
2022-10-10T03:22:10.613Z,32.20
2022-10-10T03:24:38.552Z,32.30
2022-10-10T03:27:06.503Z,32.40
2022-10-10T03:29:34.745Z,32.50
2022-10-10T03:32:03.119Z,33.00
2022-10-10T03:34:31.389Z,33.10
2022-10-10T03:36:59.321Z,34.20
2022-10-10T03:39:28.754Z,33.20
2022-10-10T03:41:56.691Z,33.10
2022-10-10T03:44:24.817Z,33.60
2022-10-10T03:46:52.775Z,33.40
2022-10-10T03:49:21.001Z,33.60
2022-10-10T03:51:48.894Z,33.40
2022-10-10T03:54:16.895Z,33.70
2022-10-10T03:56:46.350Z,33.70
2022-10-10T03:59:14.285Z,33.70
2022-10-10T04:01:42.300Z,33.90
2022-10-10T04:04:10.401Z,33.80
2022-10-10T04:06:38.320Z,33.90
2022-10-10T04:09:06.303Z,34.10
2022-10-10T04:11:36.317Z,34.20
2022-10-10T04:14:05.606Z,35.00
2022-10-10T04:16:33.562Z,34.00
2022-10-10T04:19:01.898Z,34.10
2022-10-10T04:21:29.831Z,34.10
2022-10-10T04:23:57.795Z,34.40
2022-10-10T04:26:25.753Z,34.20
2022-10-10T04:28:53.757Z,34.20
2022-10-10T04:31:23.844Z,34.40
2022-10-10T04:33:51.752Z,34.00
2022-10-10T04:36:19.780Z,34.20
2022-10-10T04:38:47.792Z,34.30
2022-10-10T04:41:15.754Z,34.30
2022-10-10T04:43:43.668Z,34.30
2022-10-10T04:46:11.585Z,34.30
2022-10-10T04:48:40.845Z,34.40
2022-10-10T04:51:08.801Z,34.40
2022-10-10T04:53:36.933Z,34.10
2022-10-10T04:56:05.013Z,34.40
2022-10-10T04:58:33.064Z,34.40
2022-10-10T05:01:01.092Z,33.90
2022-10-10T05:03:29.665Z,34.60
2022-10-10T05:05:58.913Z,34.50
2022-10-10T05:08:26.905Z,34.60
2022-10-10T05:10:54.877Z,34.40
2022-10-10T05:13:22.792Z,34.70
2022-10-10T05:15:53.004Z,34.70
2022-10-10T05:18:21.313Z,34.50
2022-10-10T05:20:49.350Z,34.50
2022-10-10T05:23:18.872Z,35.00
2022-10-10T05:25:50.033Z,34.80
2022-10-10T05:28:18.531Z,34.80
2022-10-10T05:30:46.496Z,34.70
2022-10-10T05:33:14.451Z,35.70
2022-10-10T05:35:42.498Z,35.40
2022-10-10T05:38:10.477Z,34.90
2022-10-10T05:40:42.017Z,35.30
2022-10-10T05:43:10.101Z,35.20
2022-10-10T05:45:38.147Z,35.20
2022-10-10T05:48:06.136Z,35.20
2022-10-10T05:50:39.217Z,34.90
2022-10-10T05:53:07.613Z,35.30
2022-10-10T05:55:36.570Z,35.60
2022-10-10T05:58:06.523Z,35.30
2022-10-10T06:00:35.043Z,35.20
2022-10-10T06:03:02.997Z,35.00
2022-10-10T06:05:30.941Z,34.60
2022-10-10T06:08:07.950Z,35.00
2022-10-10T06:10:41.383Z,34.90
2022-10-10T06:13:11.206Z,35.20
2022-10-10T06:15:39.156Z,35.40
2022-10-10T06:18:07.952Z,34.90
2022-10-10T06:20:36.478Z,35.80
2022-10-10T06:23:05.224Z,35.20
2022-10-10T06:25:42.197Z,35.20
2022-10-10T06:28:12.810Z,35.30
2022-10-10T06:30:41.972Z,35.30
2022-10-10T06:33:10.163Z,35.40
2022-10-10T06:35:42.448Z,33.90
2022-10-10T06:38:10.763Z,34.30
2022-10-10T06:40:39.160Z,35.10
2022-10-10T06:43:11.297Z,35.10
2022-10-10T06:45:42.992Z,34.70
2022-10-10T06:48:12.089Z,34.70
2022-10-10T06:50:40.030Z,34.80
2022-10-10T06:53:08.077Z,34.50
2022-10-10T06:55:36.089Z,34.70
2022-10-10T06:58:04.121Z,34.80
2022-10-10T07:00:32.079Z,35.10
2022-10-10T07:03:01.657Z,34.70
2022-10-10T07:05:29.630Z,34.60
2022-10-10T07:07:57.619Z,34.20
2022-10-10T07:10:25.797Z,34.30
2022-10-10T07:12:53.952Z,34.60
2022-10-10T07:15:22.115Z,34.90
2022-10-10T07:17:54.288Z,34.30
2022-10-10T07:20:23.889Z,34.30
2022-10-10T07:22:52.266Z,34.30
2022-10-10T07:25:20.609Z,34.10
2022-10-10T07:27:49.241Z,34.20
2022-10-10T07:30:17.461Z,34.20
2022-10-10T07:32:45.947Z,34.20
2022-10-10T07:35:13.932Z,34.10
2022-10-10T07:37:43.224Z,33.70
2022-10-10T07:40:11.908Z,33.50
2022-10-10T07:42:40.052Z,33.30
2022-10-10T07:45:11.557Z,33.10
2022-10-10T07:47:39.658Z,33.10
2022-10-10T07:50:09.317Z,33.10
2022-10-10T07:52:37.315Z,32.80
2022-10-10T07:55:08.722Z,32.60
2022-10-10T07:57:37.061Z,32.70
2022-10-10T08:00:08.469Z,32.60
2022-10-10T08:02:36.906Z,32.20
2022-10-10T08:05:05.655Z,29.60
2022-10-10T08:07:33.668Z,26.80
2022-10-10T08:10:02.414Z,24.70
2022-10-10T08:12:31.694Z,24.30
2022-10-10T08:15:00.643Z,25.50
2022-10-10T08:17:28.637Z,24.90
2022-10-10T08:19:56.612Z,24.20
2022-10-10T08:22:24.602Z,25.60
2022-10-10T08:24:52.615Z,26.00
2022-10-10T08:27:20.996Z,25.50
2022-10-10T08:29:50.461Z,25.10
2022-10-10T08:32:18.417Z,25.20
2022-10-10T08:34:46.364Z,25.00
2022-10-10T08:37:14.302Z,25.40
2022-10-10T08:39:42.259Z,24.70
2022-10-10T08:42:17.889Z,25.00
2022-10-10T08:44:52.496Z,25.50
2022-10-10T08:47:25.634Z,25.30
2022-10-10T08:49:58.212Z,25.30
2022-10-10T08:52:33.668Z,25.20
2022-10-10T08:55:07.356Z,25.10
2022-10-10T08:57:44.502Z,24.90
2022-10-10T09:00:19.257Z,24.60
2022-10-10T09:02:54.850Z,24.50
2022-10-10T09:05:37.827Z,24.90
2022-10-10T09:08:26.635Z,24.00
2022-10-10T09:10:58.929Z,24.90
2022-10-10T09:13:35.298Z,24.60
2022-10-10T09:16:09.369Z,24.20
2022-10-10T09:18:53.058Z,24.40
2022-10-10T09:21:26.241Z,24.00
2022-10-10T09:24:04.443Z,23.80
2022-10-10T09:26:37.208Z,23.70
2022-10-10T09:29:17.764Z,24.00
2022-10-10T09:31:51.353Z,23.60
2022-10-10T09:34:24.417Z,23.80
2022-10-10T09:36:57.221Z,23.60
2022-10-10T09:39:38.629Z,23.90
2022-10-10T09:42:13.661Z,23.60
2022-10-10T09:44:43.080Z,23.40
2022-10-10T09:47:15.158Z,23.40
2022-10-10T09:49:44.258Z,23.30
2022-10-10T09:52:28.965Z,23.10
2022-10-10T09:55:02.125Z,23.10
2022-10-10T09:57:38.045Z,23.30
2022-10-10T10:00:34.494Z,22.70
2022-10-10T10:03:16.011Z,22.90
2022-10-10T10:05:48.126Z,22.60
2022-10-10T10:08:27.989Z,22.60
2022-10-10T10:10:59.639Z,22.60
2022-10-10T10:13:32.016Z,22.80
2022-10-10T10:16:08.289Z,22.20
2022-10-10T10:18:43.480Z,22.40
2022-10-10T10:21:23.204Z,22.50
2022-10-10T10:23:58.871Z,22.50
2022-10-10T10:26:31.893Z,21.80
2022-10-10T10:29:00.070Z,22.40
2022-10-10T10:31:54.730Z,22.20
2022-10-10T10:34:43.309Z,22.30
2022-10-10T10:37:21.129Z,22.70
2022-10-10T10:40:22.340Z,22.80
2022-10-10T10:43:36.275Z,22.90
2022-10-10T10:46:14.898Z,23.00
2022-10-10T10:48:46.873Z,22.50
2022-10-10T10:51:35.726Z,23.00
2022-10-10T10:54:22.587Z,23.60
2022-10-10T10:57:06.224Z,23.60
2022-10-10T11:00:21.688Z,23.90
2022-10-10T11:02:57.685Z,24.00
2022-10-10T11:05:41.761Z,23.90
2022-10-10T11:08:42.385Z,23.80
2022-10-10T11:11:33.815Z,24.10
2022-10-10T11:14:10.380Z,23.90
2022-10-10T11:19:39.539Z,23.90
2022-10-10T11:22:11.029Z,23.80
2022-10-10T11:24:46.592Z,24.00
2022-10-10T11:27:21.936Z,24.00
2022-10-10T11:30:00.297Z,24.40
2022-10-10T11:32:36.202Z,24.20
2022-10-10T11:35:16.961Z,24.30
2022-10-10T11:37:50.841Z,23.40
2022-10-10T11:40:37.829Z,23.20
2022-10-10T11:43:12.625Z,23.30
2022-10-10T11:45:47.260Z,23.00
2022-10-10T11:48:27.628Z,23.20
2022-10-10T11:51:02.197Z,23.10
2022-10-10T11:53:38.580Z,22.50
2022-10-10T11:56:20.256Z,22.70
2022-10-10T11:58:54.332Z,22.50
2022-10-10T12:01:28.522Z,22.60
2022-10-10T12:03:57.205Z,21.90
2022-10-10T12:06:31.705Z,22.00
2022-10-10T12:09:05.004Z,22.10
2022-10-10T12:11:40.309Z,22.10
2022-10-10T12:14:13.498Z,22.00
2022-10-10T12:16:41.610Z,22.10
2022-10-10T12:19:18.670Z,21.80
2022-10-10T12:22:00.341Z,22.30
2022-10-10T12:24:30.496Z,22.50
2022-10-10T12:27:43.368Z,22.00
2022-10-10T12:30:28.208Z,21.70
2022-10-10T12:32:56.348Z,22.10
2022-10-10T12:35:35.749Z,23.00
2022-10-10T12:38:18.159Z,21.60
2022-10-10T12:41:15.268Z,22.00
2022-10-10T12:43:50.360Z,21.80
2022-10-10T12:46:34.218Z,21.30
2022-10-10T12:49:13.251Z,21.60
2022-10-10T12:51:43.074Z,21.70
2022-10-10T12:54:24.729Z,21.40
2022-10-10T12:57:05.069Z,21.40
2022-10-10T12:59:37.405Z,21.40
2022-10-10T13:02:13.085Z,21.30
2022-10-10T13:04:44.287Z,21.60
2022-10-10T13:07:18.709Z,21.80
2022-10-10T13:09:50.791Z,21.60
2022-10-10T13:12:28.689Z,21.70
2022-10-10T13:14:58.422Z,21.50
2022-10-10T13:17:30.085Z,22.20
2022-10-10T13:20:01.419Z,21.40
2022-10-10T13:22:32.064Z,21.70
2022-10-10T13:25:01.653Z,21.70
2022-10-10T13:27:32.260Z,21.70
2022-10-10T13:30:02.001Z,21.40
2022-10-10T13:32:33.690Z,20.90
2022-10-10T13:35:06.417Z,21.30
2022-10-10T13:37:35.066Z,21.90
2022-10-10T13:40:03.479Z,21.80
2022-10-10T13:42:35.351Z,22.60
2022-10-10T13:45:33.741Z,22.50
2022-10-10T13:48:26.602Z,22.60
2022-10-10T13:51:04.930Z,22.20
2022-10-10T13:53:49.332Z,22.30
2022-10-10T13:56:25.109Z,22.30
2022-10-10T13:58:56.517Z,22.00
2022-10-10T14:01:39.019Z,22.00
2022-10-10T14:04:20.784Z,21.90
2022-10-10T14:06:56.767Z,21.60
2022-10-10T14:09:31.752Z,21.70
2022-10-10T14:12:04.082Z,22.20
2022-10-10T14:14:42.002Z,22.10
2022-10-10T14:17:12.764Z,22.20
2022-10-10T14:19:41.193Z,21.80
2022-10-10T14:22:09.358Z,22.10
2022-10-10T14:24:37.505Z,22.50
2022-10-10T14:27:16.948Z,22.60
2022-10-10T14:29:44.921Z,22.50
2022-10-10T14:32:15.669Z,23.00
2022-10-10T14:34:44.463Z,22.90
2022-10-10T14:37:19.626Z,23.20
2022-10-10T14:39:48.291Z,23.30
2022-10-10T14:42:18.729Z,23.30
2022-10-10T14:44:47.018Z,23.30
2022-10-10T14:47:18.818Z,23.60
2022-10-10T14:49:47.077Z,23.60
2022-10-10T14:52:15.375Z,23.50
2022-10-10T14:54:43.698Z,23.20
2022-10-10T14:57:13.163Z,24.20
2022-10-10T14:59:45.947Z,23.80
2022-10-10T15:02:19.835Z,23.80
2022-10-10T15:04:47.818Z,23.80
2022-10-10T15:07:16.126Z,23.90
2022-10-10T15:10:09.559Z,24.20
2022-10-10T15:12:34.205Z,24.40
2022-10-10T15:15:02.331Z,24.30
2022-10-10T15:17:34.140Z,24.20
2022-10-10T15:20:02.499Z,24.30
2022-10-10T15:22:30.987Z,24.50
2022-10-10T15:24:59.577Z,24.90
2022-10-10T15:27:28.851Z,24.50
2022-10-10T15:29:57.191Z,24.80
2022-10-10T15:32:25.625Z,24.80
2022-10-10T15:34:55.082Z,25.00
2022-10-10T15:37:26.357Z,24.90
2022-10-10T15:39:54.501Z,25.10
2022-10-10T15:42:23.546Z,25.50
2022-10-10T15:44:52.446Z,25.30
2022-10-10T15:47:21.339Z,25.50
2022-10-10T15:49:49.908Z,25.00
2022-10-10T15:52:22.890Z,25.30
2022-10-10T15:54:51.356Z,24.30
2022-10-10T15:57:19.748Z,25.30
2022-10-10T15:59:48.089Z,24.20
2022-10-10T16:02:17.249Z,25.40
2022-10-10T16:04:46.328Z,25.70
2022-10-10T16:07:31.723Z,25.30
2022-10-10T16:10:03.804Z,25.60
2022-10-10T16:12:31.754Z,25.50
2022-10-10T16:15:03.373Z,25.70
2022-10-10T16:17:34.136Z,25.50
2022-10-10T16:20:02.097Z,25.60
2022-10-10T16:22:30.050Z,25.20
2022-10-10T16:25:20.660Z,24.70
2022-10-10T16:27:47.308Z,24.80
2022-10-10T16:30:16.328Z,25.40
2022-10-10T16:32:44.370Z,24.50
2022-10-10T16:35:12.745Z,25.00
2022-10-10T16:37:40.694Z,25.50
2022-10-10T16:40:10.135Z,25.90
2022-10-10T16:42:38.274Z,25.60
2022-10-10T16:45:09.497Z,25.50
2022-10-10T16:47:37.952Z,25.50
2022-10-10T16:50:07.239Z,25.50
2022-10-10T16:52:37.757Z,25.30
2022-10-10T16:55:07.473Z,25.10
2022-10-10T16:57:35.660Z,25.30
2022-10-10T17:00:04.268Z,25.70
2022-10-10T17:02:33.567Z,25.70
2022-10-10T17:05:01.596Z,25.60
2022-10-10T17:07:29.565Z,25.30
2022-10-10T17:09:57.481Z,25.30
2022-10-10T17:12:25.419Z,25.10
2022-10-10T17:14:53.312Z,25.60
2022-10-10T17:17:22.425Z,26.00
2022-10-10T17:19:51.680Z,26.00
2022-10-10T17:22:20.269Z,26.10
2022-10-10T17:24:48.406Z,26.20
2022-10-10T17:27:16.340Z,26.00
2022-10-10T17:29:44.296Z,26.60
2022-10-10T17:32:12.319Z,26.30
2022-10-10T17:34:40.284Z,25.70
2022-10-10T17:37:09.535Z,25.60
2022-10-10T17:39:37.536Z,26.30
2022-10-10T17:42:06.155Z,26.30
2022-10-10T17:44:40.339Z,26.30
2022-10-10T17:47:11.795Z,26.20
2022-10-10T17:49:44.849Z,25.70
2022-10-10T17:52:18.871Z,26.20
2022-10-10T17:54:49.351Z,26.50
2022-10-10T17:57:17.582Z,26.60
2022-10-10T17:59:45.541Z,26.60
2022-10-10T18:02:16.632Z,26.30
2022-10-10T18:04:44.979Z,26.60
2022-10-10T18:07:15.053Z,26.40
2022-10-10T18:09:43.335Z,26.70
2022-10-10T18:12:11.436Z,26.00
2022-10-10T18:14:39.428Z,26.80
2022-10-10T18:17:07.401Z,26.90
2022-10-10T18:19:35.555Z,26.40
2022-10-10T18:22:03.560Z,26.40
2022-10-10T18:24:32.986Z,27.10
2022-10-10T18:27:01.102Z,26.90
2022-10-10T18:29:29.204Z,26.40
2022-10-10T18:31:57.308Z,27.10
2022-10-10T18:34:25.277Z,27.20
2022-10-10T18:36:53.246Z,27.30
2022-10-10T18:39:21.241Z,27.40
2022-10-10T18:41:50.547Z,27.70
2022-10-10T18:44:20.054Z,27.70
2022-10-10T18:46:49.574Z,28.30
2022-10-10T18:49:17.616Z,27.40
2022-10-10T18:51:46.744Z,27.80
2022-10-10T18:54:17.567Z,27.40
2022-10-10T18:56:47.914Z,27.90
2022-10-10T18:59:21.832Z,27.80
2022-10-10T19:01:52.266Z,27.50
2022-10-10T19:04:29.442Z,27.00
2022-10-10T19:06:57.933Z,26.90
2022-10-10T19:09:29.078Z,27.20
2022-10-10T19:11:57.190Z,27.60
2022-10-10T19:14:26.580Z,27.40
2022-10-10T19:16:54.783Z,27.70
2022-10-10T19:19:23.764Z,27.00
2022-10-10T19:21:52.137Z,27.20
2022-10-10T19:24:21.269Z,27.50
2022-10-10T19:26:56.885Z,27.40
2022-10-10T19:29:27.678Z,27.50
2022-10-10T19:31:56.166Z,27.50
2022-10-10T19:34:24.715Z,27.00
2022-10-10T19:36:53.475Z,27.40
2022-10-10T19:39:21.733Z,27.20
2022-10-10T19:41:49.766Z,27.10
2022-10-10T19:44:17.954Z,26.90
2022-10-10T19:46:47.302Z,26.90
2022-10-10T19:49:15.210Z,27.00
2022-10-10T19:51:43.150Z,26.80
2022-10-10T19:54:11.192Z,26.70
2022-10-10T19:56:39.163Z,26.70
2022-10-10T19:59:07.327Z,26.60
2022-10-10T20:01:35.506Z,26.40
2022-10-10T20:04:04.838Z,26.50
2022-10-10T20:06:33.157Z,26.20
2022-10-10T20:09:01.149Z,26.30
2022-10-10T20:11:29.221Z,26.40
2022-10-10T20:13:58.265Z,26.40
2022-10-10T20:16:27.676Z,26.20
2022-10-10T20:18:57.338Z,26.30
2022-10-10T20:21:31.496Z,26.30
2022-10-10T20:24:02.336Z,26.30
2022-10-10T20:26:30.713Z,26.40
2022-10-10T20:28:59.233Z,26.50
2022-10-10T20:31:30.320Z,26.00
2022-10-10T20:34:00.807Z,26.50
2022-10-10T20:36:32.268Z,26.70
2022-10-10T20:39:02.881Z,27.00
2022-10-10T20:41:34.087Z,26.60
2022-10-10T20:44:05.490Z,27.00
2022-10-10T20:46:36.445Z,27.00
2022-10-10T20:49:08.101Z,27.00
2022-10-10T20:51:37.406Z,26.70
2022-10-10T20:54:07.490Z,26.90
2022-10-10T20:56:36.792Z,27.10
2022-10-10T20:59:05.137Z,27.30
2022-10-10T21:01:33.189Z,27.40
2022-10-10T21:04:01.863Z,27.40
2022-10-10T21:06:34.325Z,27.40
2022-10-10T21:09:07.221Z,27.40
2022-10-10T21:11:35.992Z,27.60
2022-10-10T21:14:04.129Z,27.80
2022-10-10T21:16:34.937Z,27.50
2022-10-10T21:19:04.031Z,27.70
2022-10-10T21:21:34.696Z,27.80
2022-10-10T21:24:07.981Z,28.10
2022-10-10T21:26:36.421Z,28.20
2022-10-10T21:29:05.313Z,28.40
2022-10-10T21:31:36.060Z,27.90
2022-10-10T21:34:05.849Z,28.60
2022-10-10T21:36:35.073Z,28.20
2022-10-10T21:39:06.745Z,28.70
2022-10-10T21:41:34.871Z,28.60
2022-10-10T21:44:02.916Z,28.70
2022-10-10T21:46:36.641Z,28.80
2022-10-10T21:49:07.883Z,28.80
2022-10-10T21:51:39.058Z,29.00
2022-10-10T21:54:09.349Z,28.40
2022-10-10T21:56:38.116Z,29.10
2022-10-10T21:59:06.655Z,29.00
2022-10-10T22:01:34.656Z,29.10
2022-10-10T22:04:03.356Z,29.00
2022-10-10T22:06:32.607Z,28.80
2022-10-10T22:09:02.220Z,28.80
2022-10-10T22:11:34.137Z,29.30
2022-10-10T22:14:03.105Z,29.40
2022-10-10T22:16:31.661Z,29.20
2022-10-10T22:19:00.230Z,29.40
2022-10-10T22:21:31.542Z,29.20
2022-10-10T22:24:01.328Z,29.60
2022-10-10T22:26:31.625Z,29.40
2022-10-10T22:28:59.867Z,29.60
2022-10-10T22:31:29.097Z,29.50
2022-10-10T22:33:57.649Z,29.60
2022-10-10T22:36:25.632Z,29.70
2022-10-10T22:38:53.601Z,29.80
2022-10-10T22:41:21.563Z,30.00
2022-10-10T22:43:50.964Z,29.80
2022-10-10T22:46:19.108Z,29.40
2022-10-10T22:48:47.426Z,30.10
2022-10-10T22:51:17.841Z,30.10
2022-10-10T22:53:48.383Z,30.00
2022-10-10T22:56:20.053Z,30.10
2022-10-10T22:58:50.860Z,30.30
2022-10-10T23:01:21.883Z,30.40
2022-10-10T23:03:49.908Z,30.30
2022-10-10T23:06:18.076Z,30.10
2022-10-10T23:08:46.012Z,30.60
2022-10-10T23:11:14.006Z,30.50
2022-10-10T23:13:42.105Z,30.70
2022-10-10T23:16:11.985Z,30.80
2022-10-10T23:18:39.956Z,30.50
2022-10-10T23:21:07.939Z,30.30
2022-10-10T23:23:35.911Z,30.60
2022-10-10T23:26:09.243Z,30.30
2022-10-10T23:28:39.190Z,30.70
2022-10-10T23:31:09.526Z,30.80
2022-10-10T23:33:39.580Z,30.80
2022-10-10T23:36:11.427Z,30.90
2022-10-10T23:38:39.590Z,31.20
2022-10-10T23:41:08.576Z,31.00
2022-10-10T23:43:36.901Z,31.40
2022-10-10T23:46:05.397Z,30.90
2022-10-10T23:48:33.583Z,31.10
2022-10-10T23:51:02.931Z,30.90
2022-10-10T23:53:30.889Z,31.00
2022-10-10T23:55:58.851Z,31.60
2022-10-10T23:58:26.897Z,31.30
